SKLT/LET METAR and TAF weather

Enter ICAO airport designator
Station Type Date Time Source
SKLT METAR 2020/07/06 19:00 UTC NOAA

SKLT 061900Z 00000KT 9999 SCT025 SCT100 30/26 A2985


Station Type Date Time Source
SKLT Decoded METAR 2020/07/06 19:00 UTC NOAA

Leticia / Vasquez Cobo, Colombia (SKLT) 04-10S 069-57W 84M
Jul 06, 2020 - 03:00 PM EDT / 2020.07.06 1900 UTC
Wind: Calm:0
Visibility: greater than 7 mile(s):0
Sky conditions: partly cloudy
Temperature: 86 F (30 C)
Heat index: 99.3 F (37.4 C):1
Dew Point: 78 F (26 C)
Relative Humidity: 79%
Pressure (altimeter): 29.85 in. Hg (1010 hPa)
ob: SKLT 061900Z 00000KT 9999 SCT025 SCT100 30/26 A2985
cycle: 19

Station Type Date Time Source
SKLT TAF 2020/07/06 18:45 UTC NOAA

TAF SKLT 061630Z 0618/0718 24004KT 9999 SCT017 BKN080
TEMPO 0618/0622 4000 TSRA BKN015CB
TEMPO 0709/0713 2000 BR BKN006 TX31/0619Z TN22/0710Z

Example: see airport list